createdAt,value
2022-09-17T00:00:59.624Z,10.40
2022-09-17T00:03:26.925Z,9.90
2022-09-17T00:06:06.003Z,9.40
2022-09-17T00:08:33.977Z,9.30
2022-09-17T00:11:08.123Z,9.20
2022-09-17T00:13:34.897Z,9.40
2022-09-17T00:16:01.903Z,9.60
2022-09-17T00:18:28.677Z,9.90
2022-09-17T00:20:55.715Z,10.00
2022-09-17T00:23:22.456Z,9.90
2022-09-17T00:25:49.316Z,9.90
2022-09-17T00:28:16.069Z,9.90
2022-09-17T00:30:44.737Z,9.80
2022-09-17T00:33:13.689Z,9.70
2022-09-17T00:35:40.765Z,9.60
2022-09-17T00:38:07.406Z,9.60
2022-09-17T00:40:34.945Z,9.70
2022-09-17T00:43:02.148Z,9.60
2022-09-17T00:45:29.980Z,9.50
2022-09-17T00:48:02.442Z,9.60
2022-09-17T00:50:42.066Z,9.60
2022-09-17T00:53:13.795Z,9.70
2022-09-17T00:55:45.408Z,9.50
2022-09-17T00:58:14.932Z,9.20
2022-09-17T01:00:41.703Z,9.20
2022-09-17T01:03:08.914Z,9.30
2022-09-17T01:06:05.644Z,9.40
2022-09-17T01:08:48.917Z,9.40
2022-09-17T01:11:40.555Z,9.40
2022-09-17T01:14:30.088Z,9.40
2022-09-17T01:17:08.579Z,9.50
2022-09-17T01:19:54.558Z,9.40
2022-09-17T01:22:24.519Z,9.30
2022-09-17T01:25:03.709Z,9.40
2022-09-17T01:28:12.101Z,9.50
2022-09-17T01:31:07.978Z,9.70
2022-09-17T01:34:01.410Z,9.60
2022-09-17T01:36:46.547Z,9.70
2022-09-17T01:39:22.433Z,9.60
2022-09-17T01:42:00.892Z,9.70
2022-09-17T01:44:52.551Z,9.60
2022-09-17T01:47:35.214Z,9.50
2022-09-17T01:50:07.298Z,9.60
2022-09-17T01:52:37.275Z,9.60
2022-09-17T01:55:07.534Z,9.60
2022-09-17T01:57:40.387Z,9.60
2022-09-17T02:00:15.811Z,9.70
2022-09-17T02:03:10.174Z,9.70
2022-09-17T02:05:41.482Z,9.60
2022-09-17T02:08:22.027Z,9.60
2022-09-17T02:10:55.005Z,9.40
2022-09-17T02:13:37.773Z,9.40
2022-09-17T02:16:17.642Z,9.70
2022-09-17T02:18:53.728Z,9.80
2022-09-17T02:21:56.907Z,9.60
2022-09-17T02:24:43.462Z,9.60
2022-09-17T02:27:32.331Z,9.40
2022-09-17T02:29:58.997Z,9.30
2022-09-17T02:32:25.913Z,9.40
2022-09-17T02:34:53.166Z,9.40
2022-09-17T02:37:19.976Z,9.40
2022-09-17T02:39:47.156Z,9.40
2022-09-17T02:42:41.918Z,9.40
2022-09-17T02:45:46.439Z,9.10
2022-09-17T02:48:24.459Z,9.00
2022-09-17T02:51:05.604Z,8.80
2022-09-17T02:53:39.742Z,8.80
2022-09-17T02:56:15.351Z,8.90
2022-09-17T02:59:11.906Z,9.00
2022-09-17T03:02:25.227Z,9.10
2022-09-17T03:04:55.085Z,8.90
2022-09-17T03:07:23.200Z,8.50
2022-09-17T03:09:49.934Z,8.30
2022-09-17T03:12:17.401Z,8.20
2022-09-17T03:14:44.048Z,8.00
2022-09-17T03:17:11.350Z,8.00
2022-09-17T03:19:38.021Z,7.90
2022-09-17T03:22:04.678Z,7.90
2022-09-17T03:24:31.309Z,8.00
2022-09-17T03:26:58.005Z,8.30
2022-09-17T03:29:24.701Z,8.40
2022-09-17T03:31:51.749Z,8.30
2022-09-17T03:34:18.845Z,8.40
2022-09-17T03:36:45.466Z,8.50
2022-09-17T03:39:12.154Z,8.60
2022-09-17T03:41:39.502Z,8.60
2022-09-17T03:44:06.579Z,8.70
2022-09-17T03:46:33.284Z,8.50
2022-09-17T03:49:00.011Z,8.20
2022-09-17T03:51:26.650Z,8.00
2022-09-17T03:53:53.388Z,8.00
2022-09-17T03:56:20.068Z,7.90
2022-09-17T03:58:46.756Z,7.90
2022-09-17T04:01:13.493Z,7.90
2022-09-17T04:03:40.605Z,7.90
2022-09-17T04:06:07.624Z,7.80
2022-09-17T04:08:34.260Z,7.80
2022-09-17T04:11:00.861Z,8.30
2022-09-17T04:13:27.532Z,8.40
2022-09-17T04:15:54.279Z,8.50
2022-09-17T04:18:21.141Z,8.70
2022-09-17T04:20:47.907Z,8.60
2022-09-17T04:23:14.693Z,8.60
2022-09-17T04:25:42.305Z,8.50
2022-09-17T04:28:08.971Z,8.50
2022-09-17T04:30:36.058Z,8.30
2022-09-17T04:33:02.901Z,8.20
2022-09-17T04:35:30.035Z,8.40
2022-09-17T04:37:58.279Z,8.50
2022-09-17T04:40:26.224Z,8.70
2022-09-17T04:42:54.145Z,9.00
2022-09-17T04:45:21.453Z,9.20
2022-09-17T04:47:48.174Z,9.30
2022-09-17T04:50:14.922Z,9.40
2022-09-17T04:52:45.403Z,9.40
2022-09-17T04:55:12.645Z,9.30
2022-09-17T04:57:39.570Z,9.20
2022-09-17T05:00:10.797Z,9.20
2022-09-17T05:02:37.412Z,9.40
2022-09-17T05:05:04.296Z,9.40
2022-09-17T05:07:30.955Z,9.00
2022-09-17T05:09:57.610Z,8.90
2022-09-17T05:12:24.293Z,8.70
2022-09-17T05:14:50.980Z,8.80
2022-09-17T05:17:17.593Z,8.90
2022-09-17T05:19:44.248Z,9.10
2022-09-17T05:22:10.855Z,9.10
2022-09-17T05:24:39.312Z,9.20
2022-09-17T05:27:09.108Z,9.10
2022-09-17T05:29:36.748Z,8.90
2022-09-17T05:32:07.129Z,9.00
2022-09-17T05:34:33.984Z,8.90
2022-09-17T05:37:00.610Z,8.80
2022-09-17T05:39:27.240Z,8.90
2022-09-17T05:41:54.453Z,8.80
2022-09-17T05:44:21.813Z,8.70
2022-09-17T05:46:48.565Z,8.80
2022-09-17T05:49:15.326Z,8.70
2022-09-17T05:51:42.674Z,8.80
2022-09-17T05:54:09.454Z,8.90
2022-09-17T05:56:36.112Z,8.90
2022-09-17T05:59:02.904Z,8.70
2022-09-17T06:01:29.893Z,8.50
2022-09-17T06:03:56.783Z,8.40
2022-09-17T06:06:23.470Z,8.40
2022-09-17T06:08:50.121Z,8.50
2022-09-17T06:11:16.751Z,8.40
2022-09-17T06:13:43.799Z,8.40
2022-09-17T06:16:10.545Z,8.60
2022-09-17T06:18:37.274Z,8.80
2022-09-17T06:21:05.558Z,8.80
2022-09-17T06:23:35.242Z,8.90
2022-09-17T06:26:03.191Z,8.90
2022-09-17T06:28:30.534Z,8.90
2022-09-17T06:31:01.510Z,9.00
2022-09-17T06:33:28.228Z,9.00
2022-09-17T06:36:00.633Z,9.20
2022-09-17T06:38:28.990Z,9.20
2022-09-17T06:40:55.944Z,9.30
2022-09-17T06:43:23.343Z,9.50
2022-09-17T06:45:57.715Z,9.30
2022-09-17T06:48:25.278Z,9.20
2022-09-17T06:50:54.219Z,9.20
2022-09-17T06:53:24.546Z,9.10
2022-09-17T06:55:51.336Z,9.30
2022-09-17T06:58:18.026Z,9.40
2022-09-17T07:00:44.883Z,9.40
2022-09-17T07:03:11.608Z,9.50
2022-09-17T07:05:38.238Z,9.60
2022-09-17T07:08:05.025Z,9.50
2022-09-17T07:10:32.504Z,9.30
2022-09-17T07:12:59.379Z,9.50
2022-09-17T07:15:26.227Z,9.50
2022-09-17T07:17:53.371Z,9.60
2022-09-17T07:20:20.193Z,9.40
2022-09-17T07:22:55.624Z,9.20
2022-09-17T07:25:22.244Z,8.90
2022-09-17T07:27:48.948Z,8.70
2022-09-17T07:30:15.704Z,8.90
2022-09-17T07:32:42.378Z,9.00
2022-09-17T07:35:09.176Z,9.10
2022-09-17T07:37:35.833Z,9.20
2022-09-17T07:40:02.666Z,9.40
2022-09-17T07:42:29.347Z,9.50
2022-09-17T07:44:59.895Z,9.60
2022-09-17T07:47:28.558Z,9.90
2022-09-17T07:49:55.201Z,10.20
2022-09-17T07:52:21.838Z,10.10
2022-09-17T07:54:48.642Z,10.10
2022-09-17T07:57:16.296Z,10.10
2022-09-17T07:59:42.963Z,9.80
2022-09-17T08:02:13.453Z,9.50
2022-09-17T08:04:42.989Z,9.20
2022-09-17T08:07:13.445Z,9.60
2022-09-17T08:09:40.084Z,9.80
2022-09-17T08:12:07.134Z,9.90
2022-09-17T08:14:34.154Z,9.90
2022-09-17T08:17:00.776Z,10.10
2022-09-17T08:19:31.087Z,10.30
2022-09-17T08:21:57.705Z,10.20
2022-09-17T08:24:24.378Z,10.30
2022-09-17T08:26:51.087Z,10.00
2022-09-17T08:29:17.914Z,10.10
2022-09-17T08:31:44.705Z,10.20
2022-09-17T08:34:11.983Z,10.30
2022-09-17T08:36:38.733Z,10.30
2022-09-17T08:39:05.512Z,10.40
2022-09-17T08:41:50.415Z,10.50
2022-09-17T08:44:27.585Z,10.20
2022-09-17T08:47:08.572Z,10.20
2022-09-17T08:49:56.695Z,10.60
2022-09-17T08:52:38.281Z,10.40
2022-09-17T08:55:18.304Z,10.80
2022-09-17T08:58:03.076Z,10.30
2022-09-17T09:00:39.393Z,10.30
2022-09-17T09:03:15.084Z,9.80
2022-09-17T09:05:47.864Z,9.70
2022-09-17T09:08:18.785Z,9.60
2022-09-17T09:10:51.438Z,9.60
2022-09-17T09:13:21.400Z,10.20
2022-09-17T09:15:59.127Z,10.70
2022-09-17T09:18:29.843Z,10.80
2022-09-17T09:21:47.169Z,10.70
2022-09-17T09:24:26.135Z,10.90
2022-09-17T09:27:18.142Z,11.20
2022-09-17T09:30:05.383Z,11.30
2022-09-17T09:32:59.499Z,11.30
2022-09-17T09:35:35.426Z,11.10
2022-09-17T09:38:20.849Z,11.10
2022-09-17T09:40:53.735Z,11.20
2022-09-17T09:43:41.180Z,11.40
2022-09-17T09:46:27.340Z,11.30
2022-09-17T09:49:05.888Z,11.50
2022-09-17T09:51:54.384Z,11.30
2022-09-17T09:54:31.172Z,11.80
2022-09-17T09:57:04.170Z,11.80
2022-09-17T09:59:30.874Z,11.40
2022-09-17T10:01:57.872Z,11.90
2022-09-17T10:04:26.805Z,11.90
2022-09-17T10:06:59.784Z,12.30
2022-09-17T10:09:27.735Z,12.30
2022-09-17T10:12:05.843Z,12.70
2022-09-17T10:14:37.852Z,13.20
2022-09-17T10:17:22.303Z,13.60
2022-09-17T10:20:10.289Z,14.10
2022-09-17T10:22:42.519Z,14.70
2022-09-17T10:25:31.404Z,15.70
2022-09-17T10:28:01.632Z,16.60
2022-09-17T10:30:28.533Z,16.40
2022-09-17T10:33:23.003Z,16.70
2022-09-17T10:36:01.177Z,16.90
2022-09-17T10:38:36.329Z,17.00
2022-09-17T10:41:16.425Z,16.10
2022-09-17T10:43:43.446Z,15.40
2022-09-17T10:46:16.717Z,14.50
2022-09-17T10:48:57.813Z,14.10
2022-09-17T10:51:26.101Z,14.10
2022-09-17T10:54:08.916Z,14.40
2022-09-17T10:56:37.531Z,14.40
2022-09-17T10:59:21.390Z,14.70
2022-09-17T11:02:25.205Z,15.30
2022-09-17T11:05:23.930Z,16.30
2022-09-17T11:08:32.319Z,17.10
2022-09-17T11:11:06.013Z,16.80
2022-09-17T11:13:59.370Z,16.80
2022-09-17T11:16:34.641Z,17.20
2022-09-17T11:19:19.292Z,17.80
2022-09-17T11:21:56.135Z,17.40
2022-09-17T11:24:48.749Z,16.40
2022-09-17T11:27:25.911Z,15.60
2022-09-17T11:30:02.508Z,15.70
2022-09-17T11:32:29.082Z,16.10
2022-09-17T11:35:01.456Z,16.30
2022-09-17T11:37:35.312Z,16.40
2022-09-17T11:40:16.674Z,16.70
2022-09-17T11:42:49.719Z,17.20
2022-09-17T11:45:22.666Z,17.60
2022-09-17T11:47:58.333Z,17.30
2022-09-17T11:50:43.488Z,17.30
2022-09-17T11:53:20.140Z,16.90
2022-09-17T11:55:56.029Z,16.50
2022-09-17T11:58:57.872Z,15.50
2022-09-17T12:01:43.460Z,14.00
2022-09-17T12:04:22.029Z,13.20
2022-09-17T12:06:56.763Z,13.00
2022-09-17T12:09:28.525Z,12.90
2022-09-17T12:12:07.218Z,12.90
2022-09-17T12:14:41.891Z,13.00
2022-09-17T12:17:15.761Z,13.00
2022-09-17T12:19:51.497Z,13.00
2022-09-17T12:22:23.696Z,13.30
2022-09-17T12:24:51.862Z,13.30
2022-09-17T12:27:25.258Z,13.70
2022-09-17T12:30:13.294Z,14.30
2022-09-17T12:33:24.921Z,14.90
2022-09-17T12:36:10.977Z,15.40
2022-09-17T12:39:03.438Z,15.90
2022-09-17T12:41:41.916Z,15.80
2022-09-17T12:44:39.530Z,15.50
2022-09-17T12:47:29.285Z,15.10
2022-09-17T12:50:21.906Z,14.70
2022-09-17T12:53:07.316Z,15.00
2022-09-17T12:55:43.026Z,15.00
2022-09-17T12:58:51.176Z,15.40
2022-09-17T13:01:50.444Z,15.70
2022-09-17T13:05:19.342Z,15.80
2022-09-17T13:08:22.702Z,15.80
2022-09-17T13:11:13.992Z,15.40
2022-09-17T13:14:25.814Z,15.70
2022-09-17T13:17:23.608Z,15.90
2022-09-17T13:20:24.767Z,16.30
2022-09-17T13:22:54.243Z,16.20
2022-09-17T13:25:22.078Z,15.60
2022-09-17T13:27:50.477Z,15.60
2022-09-17T13:30:18.589Z,15.60
2022-09-17T13:32:50.433Z,15.60
2022-09-17T13:35:17.075Z,15.20
2022-09-17T13:37:56.192Z,15.30
2022-09-17T13:40:28.910Z,14.90
2022-09-17T13:43:06.142Z,15.00
2022-09-17T13:45:34.431Z,15.10
2022-09-17T13:48:03.934Z,14.90
2022-09-17T13:50:34.869Z,14.80
2022-09-17T13:53:16.483Z,14.90
2022-09-17T13:55:52.148Z,15.50
2022-09-17T13:58:18.811Z,15.80
2022-09-17T14:00:51.628Z,15.80
2022-09-17T14:03:45.579Z,15.90
2022-09-17T14:06:14.560Z,15.70
2022-09-17T14:08:44.272Z,15.60
2022-09-17T14:11:22.869Z,15.90
2022-09-17T14:14:02.724Z,16.30
2022-09-17T14:16:33.664Z,16.60
2022-09-17T14:19:05.686Z,16.40
2022-09-17T14:21:33.982Z,16.20
2022-09-17T14:24:04.398Z,16.00
2022-09-17T14:26:48.332Z,16.00
2022-09-17T14:29:43.091Z,15.90
2022-09-17T14:32:37.750Z,15.40
2022-09-17T14:35:20.196Z,14.50
2022-09-17T14:37:57.750Z,14.20
2022-09-17T14:40:26.762Z,13.90
2022-09-17T14:42:57.338Z,13.60
2022-09-17T14:45:36.918Z,13.90
2022-09-17T14:48:27.442Z,14.20
2022-09-17T14:51:17.597Z,14.40
2022-09-17T14:53:49.775Z,14.40
2022-09-17T14:56:22.375Z,14.60
2022-09-17T14:58:52.473Z,14.80
2022-09-17T15:01:28.077Z,14.70
2022-09-17T15:04:13.957Z,14.30
2022-09-17T15:06:44.378Z,14.30
2022-09-17T15:09:25.656Z,14.20
2022-09-17T15:11:55.538Z,14.00
2022-09-17T15:14:28.149Z,14.10
2022-09-17T15:16:56.733Z,13.90
2022-09-17T15:19:37.142Z,13.50
2022-09-17T15:22:16.560Z,13.70
2022-09-17T15:24:52.988Z,13.80
2022-09-17T15:27:31.553Z,13.40
2022-09-17T15:30:16.794Z,13.30
2022-09-17T15:32:52.805Z,13.30
2022-09-17T15:35:29.947Z,13.40
2022-09-17T15:38:22.719Z,12.80
2022-09-17T15:40:51.555Z,12.70
2022-09-17T15:43:32.994Z,12.60
2022-09-17T15:46:21.798Z,12.80
2022-09-17T15:48:48.550Z,13.20
2022-09-17T15:51:32.405Z,13.40
2022-09-17T15:54:06.610Z,13.50
2022-09-17T15:56:40.049Z,13.40
2022-09-17T15:59:23.486Z,13.60
2022-09-17T16:01:54.032Z,13.70
2022-09-17T16:04:24.136Z,13.70
2022-09-17T16:07:22.676Z,13.40
2022-09-17T16:09:51.793Z,13.20
2022-09-17T16:12:24.101Z,13.20
2022-09-17T16:14:56.155Z,13.40
2022-09-17T16:17:44.604Z,13.70
2022-09-17T16:20:23.528Z,14.00
2022-09-17T16:22:51.779Z,14.00
2022-09-17T16:25:24.042Z,14.00
2022-09-17T16:27:53.177Z,14.00
2022-09-17T16:30:22.673Z,13.90
2022-09-17T16:32:49.945Z,13.80
2022-09-17T16:35:19.988Z,14.00
2022-09-17T16:37:51.546Z,14.10
2022-09-17T16:40:19.296Z,14.20
2022-09-17T16:42:46.715Z,13.90
2022-09-17T16:45:13.507Z,13.90
2022-09-17T16:47:41.494Z,13.90
2022-09-17T16:50:10.917Z,14.00
2022-09-17T16:52:37.901Z,14.00
2022-09-17T16:55:06.668Z,13.90
2022-09-17T16:57:33.743Z,13.70
2022-09-17T17:00:00.917Z,13.70
2022-09-17T17:02:27.898Z,13.60
2022-09-17T17:04:54.555Z,13.80
2022-09-17T17:07:21.400Z,13.80
2022-09-17T17:09:48.341Z,13.70
2022-09-17T17:12:15.035Z,13.60
2022-09-17T17:14:41.700Z,13.30
2022-09-17T17:17:08.408Z,13.40
2022-09-17T17:19:35.898Z,13.20
2022-09-17T17:22:02.548Z,13.00
2022-09-17T17:24:29.374Z,13.00
2022-09-17T17:26:56.073Z,12.70
2022-09-17T17:29:22.732Z,12.50
2022-09-17T17:31:49.538Z,12.50
2022-09-17T17:34:16.480Z,12.20
2022-09-17T17:36:43.213Z,11.70
2022-09-17T17:39:10.031Z,11.50
2022-09-17T17:41:36.752Z,11.40
2022-09-17T17:44:03.388Z,11.30
2022-09-17T17:46:30.096Z,11.20
2022-09-17T17:48:57.901Z,11.10
2022-09-17T17:51:25.251Z,11.10
2022-09-17T17:53:51.972Z,11.00
2022-09-17T17:56:19.826Z,10.90
2022-09-17T17:58:46.810Z,10.90
2022-09-17T18:01:19.868Z,10.90
2022-09-17T18:03:47.159Z,10.80
2022-09-17T18:06:14.121Z,10.80
2022-09-17T18:08:42.459Z,10.90
2022-09-17T18:11:10.476Z,10.90
2022-09-17T18:13:38.386Z,10.60
2022-09-17T18:16:06.232Z,10.30
2022-09-17T18:18:35.265Z,10.30
2022-09-17T18:21:06.150Z,10.70
2022-09-17T18:23:38.248Z,10.60
2022-09-17T18:26:07.370Z,10.60
2022-09-17T18:28:35.556Z,10.50
2022-09-17T18:31:17.973Z,10.70
2022-09-17T18:33:44.659Z,10.70
2022-09-17T18:36:11.483Z,10.70
2022-09-17T18:38:39.670Z,10.80
2022-09-17T18:41:08.434Z,10.80
2022-09-17T18:43:35.192Z,10.90
2022-09-17T18:46:03.544Z,10.80
2022-09-17T18:48:35.723Z,10.80
2022-09-17T18:51:07.385Z,10.80
2022-09-17T18:53:36.606Z,10.90
2022-09-17T18:56:25.357Z,10.80
2022-09-17T18:58:55.083Z,10.70
2022-09-17T19:01:24.663Z,10.70
2022-09-17T19:03:51.408Z,10.50
2022-09-17T19:06:18.035Z,10.30
2022-09-17T19:08:45.652Z,10.10
2022-09-17T19:11:12.958Z,10.10
2022-09-17T19:13:42.132Z,10.10
2022-09-17T19:16:10.049Z,10.00
2022-09-17T19:18:37.237Z,9.90
2022-09-17T19:21:06.287Z,9.90
2022-09-17T19:23:33.696Z,10.00
2022-09-17T19:26:07.617Z,10.20
2022-09-17T19:28:35.074Z,10.30
2022-09-17T19:31:13.608Z,10.40
2022-09-17T19:33:40.472Z,10.60
2022-09-17T19:36:12.065Z,10.70
2022-09-17T19:38:38.910Z,10.70
2022-09-17T19:41:17.118Z,10.60
2022-09-17T19:43:45.213Z,10.80
2022-09-17T19:46:17.806Z,10.30
2022-09-17T19:48:49.842Z,10.30
2022-09-17T19:51:17.973Z,10.50
2022-09-17T19:53:45.527Z,10.20
2022-09-17T19:56:14.158Z,10.00
2022-09-17T19:58:41.623Z,9.70
2022-09-17T20:01:08.660Z,9.90
2022-09-17T20:03:35.555Z,10.10
2022-09-17T20:06:05.224Z,10.20
2022-09-17T20:08:34.329Z,10.30
2022-09-17T20:11:07.361Z,10.40
2022-09-17T20:13:35.069Z,10.60
2022-09-17T20:16:11.099Z,10.60
2022-09-17T20:18:37.964Z,10.70
2022-09-17T20:21:09.564Z,10.70
2022-09-17T20:23:36.663Z,10.70
2022-09-17T20:26:04.501Z,10.70
2022-09-17T20:28:31.561Z,10.70
2022-09-17T20:31:03.203Z,10.70
2022-09-17T20:33:30.142Z,10.80
2022-09-17T20:36:01.765Z,10.80
2022-09-17T20:39:10.428Z,10.90
2022-09-17T20:41:17.099Z,10.70
2022-09-17T20:43:49.385Z,10.60
2022-09-17T20:46:16.885Z,10.60
2022-09-17T20:48:44.363Z,10.70
2022-09-17T20:51:16.457Z,10.60
2022-09-17T20:53:43.526Z,10.50
2022-09-17T20:56:12.765Z,10.40
2022-09-17T20:58:48.729Z,10.50
2022-09-17T21:01:20.560Z,10.30
2022-09-17T21:03:53.324Z,10.30
2022-09-17T21:06:25.485Z,10.40
2022-09-17T21:08:53.127Z,10.50
2022-09-17T21:11:21.451Z,10.60
2022-09-17T21:13:48.392Z,10.30
2022-09-17T21:16:15.905Z,10.20
2022-09-17T21:18:43.183Z,10.30
2022-09-17T21:21:14.761Z,10.40
2022-09-17T21:23:42.634Z,10.60
2022-09-17T21:26:15.039Z,10.50
2022-09-17T21:28:43.725Z,10.50
2022-09-17T21:31:15.742Z,10.30
2022-09-17T21:33:43.993Z,10.40
2022-09-17T21:36:16.380Z,10.60
2022-09-17T21:38:43.274Z,10.70
2022-09-17T21:41:13.074Z,10.40
2022-09-17T21:43:40.792Z,10.20
2022-09-17T21:46:15.646Z,10.20
2022-09-17T21:48:47.518Z,10.10
2022-09-17T21:51:30.495Z,10.10
2022-09-17T21:54:00.152Z,10.20
2022-09-17T21:56:28.244Z,10.30
2022-09-17T21:58:57.378Z,10.20
2022-09-17T22:01:26.778Z,10.10
2022-09-17T22:03:55.134Z,10.20
2022-09-17T22:06:25.220Z,10.30
2022-09-17T22:08:53.438Z,10.40
2022-09-17T22:11:37.337Z,10.30
2022-09-17T22:14:08.983Z,10.30
2022-09-17T22:16:38.131Z,10.20
2022-09-17T22:19:06.053Z,10.30
2022-09-17T22:21:36.353Z,10.40
2022-09-17T22:24:04.740Z,10.40
2022-09-17T22:26:33.964Z,10.40
2022-09-17T22:29:02.004Z,10.40
2022-09-17T22:31:29.002Z,10.30
2022-09-17T22:33:55.706Z,10.60
2022-09-17T22:36:25.044Z,10.60
2022-09-17T22:38:54.479Z,10.60
2022-09-17T22:41:29.276Z,10.70
2022-09-17T22:43:57.858Z,10.70
2022-09-17T22:46:27.538Z,10.60
2022-09-17T22:48:54.856Z,10.60
2022-09-17T22:51:21.999Z,10.70
2022-09-17T22:53:48.682Z,10.60
2022-09-17T22:56:17.511Z,10.20
2022-09-17T22:58:44.753Z,10.20
2022-09-17T23:01:13.939Z,10.30
2022-09-17T23:03:40.790Z,10.40
2022-09-17T23:06:11.020Z,10.30
2022-09-17T23:08:38.518Z,10.30
2022-09-17T23:11:07.092Z,10.20
2022-09-17T23:13:35.116Z,10.40
2022-09-17T23:16:07.702Z,10.40
2022-09-17T23:18:35.485Z,10.50
2022-09-17T23:21:17.122Z,10.50
2022-09-17T23:23:45.976Z,10.40
2022-09-17T23:26:15.637Z,10.20
2022-09-17T23:28:42.779Z,10.00
2022-09-17T23:31:11.609Z,9.90
2022-09-17T23:33:38.697Z,9.70
2022-09-17T23:36:08.104Z,9.40
2022-09-17T23:38:34.972Z,9.50
2022-09-17T23:41:17.616Z,9.40
2022-09-17T23:43:46.247Z,9.20
2022-09-17T23:46:13.019Z,9.40
2022-09-17T23:48:40.000Z,9.40
2022-09-17T23:51:07.184Z,9.50
2022-09-17T23:53:35.137Z,9.60
2022-09-17T23:56:03.056Z,9.40
2022-09-17T23:58:31.070Z,9.20
